Time;durP1;ratioP1;P1;durP2;ratioP2;P2;SDS_P1;SDS_P2;PMS_P1;PMS_P2;Temp;Humidity;BMP_temperature;BMP_pressure;BME280_temperature;BME280_humidity;BME280_pressure;Samples;Min_cycle;Max_cycle;Signal;HPM_P1;HPM_P2
2024/04/10 00:02:21;;;;;;;3.38;1.92;;;;;;;7.81;100.00;97947.19;5351112;26;20365;-83
2024/04/10 00:04:51;;;;;;;7.82;2.30;;;;;;;7.81;100.00;97952.47;5357305;26;20423;-82
2024/04/10 00:07:18;;;;;;;5.30;2.20;;;;;;;7.74;100.00;97954.38;5350141;26;20341;-82
2024/04/10 00:09:47;;;;;;;6.65;1.80;;;;;;;7.73;100.00;97974.63;5349380;26;20333;-82
2024/04/10 00:12:13;;;;;;;4.57;1.83;;;;;;;7.76;100.00;97983.91;5349857;26;20337;-80
2024/04/10 00:14:39;;;;;;;7.07;2.20;;;;;;;7.76;100.00;97983.91;5350602;26;20514;-81
2024/04/10 00:17:05;;;;;;;5.13;2.42;;;;;;;7.75;100.00;97990.22;5353049;26;20430;-83
2024/04/10 00:19:32;;;;;;;5.60;2.22;;;;;;;7.71;100.00;97987.22;5354361;26;20340;-83
2024/04/10 00:21:58;;;;;;;8.77;2.00;;;;;;;7.72;100.00;97985.38;5354038;26;20373;-82
2024/04/10 00:24:24;;;;;;;6.07;2.10;;;;;;;7.76;100.00;97984.72;5354332;26;20340;-82
2024/04/10 00:26:53;;;;;;;5.95;1.88;;;;;;;7.74;100.00;97992.03;5354252;26;20369;-83
2024/04/10 00:29:19;;;;;;;3.57;1.80;;;;;;;7.70;100.00;97992.69;5354900;26;20369;-82
2024/04/10 00:31:45;;;;;;;5.25;1.70;;;;;;;7.66;100.00;97991.53;5386801;26;20350;-82
2024/04/10 00:34:11;;;;;;;5.80;1.70;;;;;;;7.58;100.00;97987.34;5390198;26;20409;-82
2024/04/10 00:36:38;;;;;;;3.17;1.80;;;;;;;7.53;100.00;97991.63;5391555;26;20334;-84
2024/04/10 00:39:04;;;;;;;2.55;1.80;;;;;;;7.49;100.00;98004.44;5394408;26;20414;-83
2024/04/10 00:41:30;;;;;;;4.50;1.80;;;;;;;7.45;100.00;97999.81;5406469;26;20314;-82
2024/04/10 00:43:59;;;;;;;5.18;1.95;;;;;;;7.43;100.00;98009.78;5407729;26;20375;-82
2024/04/10 00:46:27;;;;;;;4.57;1.92;;;;;;;7.35;100.00;98005.59;5398455;26;20334;-83
2024/04/10 00:48:54;;;;;;;6.05;2.00;;;;;;;7.35;100.00;98018.75;5388985;26;20334;-82
2024/04/10 00:51:22;;;;;;;4.63;1.90;;;;;;;7.27;100.00;98013.75;5406904;26;20484;-82
2024/04/10 00:53:48;;;;;;;5.95;1.95;;;;;;;7.17;100.00;98010.78;5401428;26;20367;-81
2024/04/10 00:56:15;;;;;;;5.38;2.53;;;;;;;7.21;100.00;98015.41;5389050;26;20431;-82
2024/04/10 00:58:41;;;;;;;5.90;2.00;;;;;;;7.15;100.00;98007.53;5389191;26;20334;-82
2024/04/10 01:01:12;;;;;;;5.25;2.20;;;;;;;7.13;100.00;98001.72;5388522;26;20477;-81
2024/04/10 01:03:39;;;;;;;3.40;1.98;;;;;;;7.06;100.00;97999.13;5387353;26;20362;-82
2024/04/10 01:06:07;;;;;;;9.45;2.00;;;;;;;7.03;100.00;98009.25;5388600;26;20458;-82
2024/04/10 01:08:34;;;;;;;3.97;1.90;;;;;;;6.96;100.00;98014.56;5390333;26;20330;-82
2024/04/10 01:11:03;;;;;;;4.25;1.73;;;;;;;6.91;100.00;98009.94;5388036;26;20369;-82
2024/04/10 01:13:30;;;;;;;4.43;2.10;;;;;;;6.85;100.00;98023.13;5387664;26;20322;-82
2024/04/10 01:15:56;;;;;;;4.70;2.15;;;;;;;6.82;100.00;98032.28;5388837;26;20403;-82
2024/04/10 01:18:25;;;;;;;5.40;1.75;;;;;;;6.77;100.00;98037.34;5387480;26;20411;-83
2024/04/10 01:20:51;;;;;;;6.53;2.05;;;;;;;6.72;100.00;98028.47;5389182;26;20419;-83
2024/04/10 01:23:20;;;;;;;6.20;1.80;;;;;;;6.65;100.00;98030.31;5389590;26;20346;-83
2024/04/10 01:25:46;;;;;;;4.32;2.00;;;;;;;6.61;100.00;98035.22;5397485;26;20334;-81
2024/04/10 01:28:13;;;;;;;7.55;2.30;;;;;;;6.59;100.00;98051.19;5386868;26;20327;-82
2024/04/10 01:30:39;;;;;;;3.45;2.00;;;;;;;6.52;100.00;98055.69;5386664;26;20671;-82
2024/04/10 01:33:05;;;;;;;5.82;2.03;;;;;;;6.49;100.00;98071.88;5388119;26;20338;-81
2024/04/10 01:35:32;;;;;;;6.57;2.45;;;;;;;6.46;100.00;98068.88;5387016;26;20331;-81
2024/04/10 01:37:58;;;;;;;3.85;2.25;;;;;;;6.43;100.00;98077.97;5388698;26;20357;-82
2024/04/10 01:40:28;;;;;;;10.18;2.45;;;;;;;6.39;100.00;98076.75;5388469;26;20335;-81
2024/04/10 01:42:55;;;;;;;5.43;2.60;;;;;;;6.35;100.00;98072.13;5387481;26;20330;-82
2024/04/10 01:45:21;;;;;;;7.53;2.33;;;;;;;6.32;100.00;98077.78;5387932;26;20386;-82
2024/04/10 01:47:47;;;;;;;2.63;2.03;;;;;;;6.32;100.00;98073.31;5390343;26;20361;-82
2024/04/10 01:50:13;;;;;;;5.15;2.10;;;;;;;6.29;100.00;98073.75;5391276;26;20338;-82
2024/04/10 01:52:39;;;;;;;5.30;2.13;;;;;;;6.28;100.00;98068.69;5390746;26;20331;-82
2024/04/10 01:55:06;;;;;;;8.35;2.55;;;;;;;6.27;100.00;98077.59;5389298;26;20334;-81
2024/04/10 01:57:35;;;;;;;5.05;2.28;;;;;;;6.26;100.00;98084.69;5388988;26;20331;-81
2024/04/10 02:00:02;;;;;;;4.45;2.10;;;;;;;6.23;100.00;98079.84;5390757;26;20376;-82
2024/04/10 02:02:28;;;;;;;6.15;2.33;;;;;;;6.22;100.00;98083.50;5386524;26;20779;-82
2024/04/10 02:04:54;;;;;;;3.50;2.53;;;;;;;6.19;100.00;98100.47;5387358;26;20382;-82
2024/04/10 02:07:20;;;;;;;3.50;2.10;;;;;;;6.17;100.00;98088.53;5387465;26;20374;-81
2024/04/10 02:09:46;;;;;;;4.95;2.08;;;;;;;6.17;100.00;98099.84;5387177;26;20444;-82
2024/04/10 02:12:13;;;;;;;7.88;2.50;;;;;;;6.11;100.00;98102.50;5386785;26;20334;-82
2024/04/10 02:14:41;;;;;;;6.10;2.30;;;;;;;6.10;100.00;98104.31;5394116;26;20404;-82
2024/04/10 02:17:08;;;;;;;4.22;2.10;;;;;;;6.15;100.00;98108.97;5404481;26;20326;-81
2024/04/10 02:19:34;;;;;;;6.20;2.40;;;;;;;6.10;100.00;98111.41;5395180;26;20355;-82
2024/04/10 02:22:00;;;;;;;6.22;2.28;;;;;;;6.13;100.00;98116.25;5386507;26;20399;-82
2024/04/10 02:24:26;;;;;;;5.78;2.42;;;;;;;6.15;100.00;98115.06;5386747;26;20330;-82
2024/04/10 02:26:52;;;;;;;3.15;2.13;;;;;;;6.17;100.00;98120.88;5386841;26;20363;-81
2024/04/10 02:29:19;;;;;;;4.90;2.20;;;;;;;6.15;100.00;98120.31;5385793;26;20339;-81
2024/04/10 02:31:48;;;;;;;7.95;2.30;;;;;;;6.15;100.00;98127.38;5386260;26;20359;-81
2024/04/10 02:34:15;;;;;;;7.30;2.20;;;;;;;6.16;100.00;98127.16;5387802;26;20353;-81
2024/04/10 02:36:41;;;;;;;4.75;2.00;;;;;;;6.17;100.00;98125.34;5386014;26;20362;-82
2024/04/10 02:39:09;;;;;;;7.53;2.30;;;;;;;6.14;100.00;98125.75;5385784;26;20341;-82
2024/04/10 02:41:35;;;;;;;5.80;2.40;;;;;;;6.16;100.00;98134.25;5388701;26;20338;-81
2024/04/10 02:44:01;;;;;;;8.18;2.10;;;;;;;6.21;100.00;98135.25;5389204;26;20411;-81
2024/04/10 02:46:27;;;;;;;5.80;1.90;;;;;;;6.12;100.00;98123.31;5384710;26;20370;-80
2024/04/10 02:48:56;;;;;;;3.08;2.25;;;;;;;6.11;100.00;98123.53;5385980;26;20355;-80
2024/04/10 02:51:22;;;;;;;9.85;2.67;;;;;;;6.05;100.00;98129.59;5385802;26;20326;-82
2024/04/10 02:53:48;;;;;;;5.45;2.00;;;;;;;6.02;100.00;98137.88;5386028;26;20876;-81
2024/04/10 02:56:14;;;;;;;4.28;2.08;;;;;;;5.96;100.00;98126.38;5386330;26;20415;-80
2024/04/10 02:58:41;;;;;;;5.35;1.90;;;;;;;5.92;100.00;98130.44;5386411;26;20819;-82
2024/04/10 03:01:11;;;;;;;7.43;2.50;;;;;;;5.91;100.00;98133.25;5385697;26;20513;-82
2024/04/10 03:03:37;;;;;;;4.73;2.10;;;;;;;5.87;100.00;98130.19;5385679;26;20884;-82
2024/04/10 03:06:07;;;;;;;5.35;2.25;;;;;;;5.78;100.00;98132.22;5385674;26;20338;-82
2024/04/10 03:08:35;;;;;;;4.55;2.08;;;;;;;5.68;100.00;98131.81;5385851;26;20841;-82
2024/04/10 03:11:01;;;;;;;5.97;2.08;;;;;;;5.67;100.00;98132.81;5386778;26;20806;-82
2024/04/10 03:13:28;;;;;;;5.53;2.30;;;;;;;5.67;100.00;98129.38;5387721;26;20362;-82
2024/04/10 03:15:54;;;;;;;4.78;2.30;;;;;;;5.62;100.00;98137.06;5397339;26;20334;-81
2024/04/10 03:18:20;;;;;;;8.07;2.67;;;;;;;5.58;100.00;98131.38;5386342;26;20429;-81
2024/04/10 03:20:46;;;;;;;5.15;2.45;;;;;;;5.54;100.00;98138.06;5386297;26;20342;-82
2024/04/10 03:23:16;;;;;;;10.27;2.70;;;;;;;5.55;100.00;98136.25;5386582;26;20366;-81
2024/04/10 03:25:42;;;;;;;7.13;2.42;;;;;;;5.52;100.00;98140.06;5386349;26;20382;-81
2024/04/10 03:28:08;;;;;;;10.32;2.65;;;;;;;5.47;100.00;98139.06;5385754;26;20374;-82
2024/04/10 03:30:35;;;;;;;9.00;2.50;;;;;;;5.42;100.00;98144.91;5393330;26;20327;-81
2024/04/10 03:33:01;;;;;;;3.78;2.30;;;;;;;5.40;100.00;98144.31;5402942;26;20400;-82
2024/04/10 03:35:29;;;;;;;9.70;2.30;;;;;;;5.46;100.00;98146.13;5392788;26;20374;-81
2024/04/10 03:37:55;;;;;;;11.00;2.40;;;;;;;5.43;100.00;98151.75;5394349;26;20333;-82
2024/04/10 03:40:23;;;;;;;5.82;2.42;;;;;;;5.42;100.00;98160.66;5393832;26;20353;-83
2024/04/10 03:42:50;;;;;;;5.03;2.55;;;;;;;5.45;100.00;98168.13;5393835;26;20356;-83
2024/04/10 03:45:16;;;;;;;7.43;2.50;;;;;;;5.50;100.00;98163.09;5393229;26;20403;-83
2024/04/10 03:47:43;;;;;;;7.77;2.47;;;;;;;5.56;100.00;98170.19;5394026;26;20346;-82
2024/04/10 03:50:09;;;;;;;9.48;2.88;;;;;;;5.59;100.00;98171.59;5385881;26;20322;-82
2024/04/10 03:52:36;;;;;;;9.10;2.53;;;;;;;5.62;100.00;98168.56;5372448;26;20344;-80
2024/04/10 03:55:02;;;;;;;8.57;2.42;;;;;;;5.65;100.00;98176.84;5373106;26;20424;-80
2024/04/10 03:57:31;;;;;;;7.47;2.50;;;;;;;5.63;100.00;98181.50;5360612;26;20337;-83
2024/04/10 03:59:57;;;;;;;11.35;2.47;;;;;;;5.67;100.00;98177.47;5383388;26;20363;-83
2024/04/10 04:02:25;;;;;;;8.90;2.70;;;;;;;5.66;100.00;98180.28;5382727;26;20393;-82
2024/04/10 04:04:51;;;;;;;12.18;2.50;;;;;;;5.71;100.00;98183.16;5363032;26;20341;-81
2024/04/10 04:07:17;;;;;;;13.88;2.65;;;;;;;5.70;100.00;98181.53;5392690;26;20374;-82
2024/04/10 04:09:43;;;;;;;8.27;2.47;;;;;;;5.70;100.00;98176.28;5372879;26;20834;-82
2024/04/10 04:12:09;;;;;;;4.93;2.00;;;;;;;5.74;100.00;98187.97;5370844;26;20331;-83
2024/04/10 04:14:38;;;;;;;9.80;2.67;;;;;;;5.70;100.00;98192.84;5359299;26;20365;-82
2024/04/10 04:17:04;;;;;;;3.38;2.15;;;;;;;5.62;100.00;98200.09;5360278;26;20702;-82
2024/04/10 04:19:31;;;;;;;6.22;2.20;;;;;;;5.62;100.00;98205.34;5362611;26;20417;-83
2024/04/10 04:21:57;;;;;;;12.97;3.00;;;;;;;5.59;100.00;98209.16;5367697;26;20420;-79
2024/04/10 04:24:24;;;;;;;9.90;2.30;;;;;;;5.58;100.00;98211.97;5369352;26;20341;-81
2024/04/10 04:26:51;;;;;;;6.75;2.45;;;;;;;5.56;100.00;98221.91;5364397;26;20328;-84
2024/04/10 04:29:18;;;;;;;11.15;2.55;;;;;;;5.59;100.00;98227.56;5354120;26;20325;-81
2024/04/10 04:31:51;;;;;;;10.15;2.47;;;;;;;5.57;100.00;98232.19;5352210;26;20364;-80
2024/04/10 04:34:17;;;;;;;7.47;1.98;;;;;;;5.58;100.00;98243.50;5354916;26;20341;-82
2024/04/10 04:36:44;;;;;;;10.80;2.80;;;;;;;5.55;100.00;98243.91;5361749;26;20514;-82
2024/04/10 04:39:13;;;;;;;8.82;2.33;;;;;;;5.54;100.00;98242.28;5373067;26;20392;-79
2024/04/10 04:41:39;;;;;;;5.18;2.22;;;;;;;5.46;100.00;98248.53;5372808;26;20401;-82
2024/04/10 04:44:05;;;;;;;7.57;2.30;;;;;;;5.42;100.00;98250.72;5380029;26;20707;-83
2024/04/10 04:46:32;;;;;;;9.68;2.92;;;;;;;5.45;100.00;98233.78;5389984;26;20374;-81
2024/04/10 04:49:00;;;;;;;6.32;2.60;;;;;;;5.45;100.00;98236.41;5383082;26;20450;-82
2024/04/10 04:51:28;;;;;;;6.85;2.20;;;;;;;5.42;100.00;98248.09;5363804;26;20376;-81
2024/04/10 04:53:54;;;;;;;7.13;2.50;;;;;;;5.34;100.00;98245.66;5348418;26;20336;-82
2024/04/10 04:56:20;;;;;;;11.43;2.60;;;;;;;5.32;100.00;98247.69;5349575;26;20696;-82
2024/04/10 04:58:46;;;;;;;6.78;2.50;;;;;;;5.28;100.00;98251.69;5350180;26;20349;-83
2024/04/10 05:01:13;;;;;;;15.00;2.47;;;;;;;5.26;100.00;98253.69;5365893;26;20467;-81
2024/04/10 05:06:26;;;;;;;9.57;2.60;;;;;;;5.45;100.00;98263.47;5394539;26;20355;-82
2024/04/10 05:08:52;;;;;;;8.15;2.88;;;;;;;5.49;100.00;98261.25;5389005;26;20338;-82
2024/04/10 05:11:19;;;;;;;8.75;2.30;;;;;;;5.56;100.00;98263.91;5387638;26;20338;-82
2024/04/10 05:13:45;;;;;;;9.18;2.38;;;;;;;5.72;100.00;98271.41;5386580;26;20374;-83
2024/04/10 05:16:11;;;;;;;7.93;2.60;;;;;;;5.83;100.00;98270.84;5387341;26;20362;-79
2024/04/10 05:18:38;;;;;;;10.82;2.20;;;;;;;5.81;100.00;98265.78;5384219;26;20334;-79
2024/04/10 05:21:04;;;;;;;6.45;2.50;;;;;;;5.86;100.00;98270.47;5365765;26;20326;-78
2024/04/10 05:23:33;;;;;;;7.83;2.60;;;;;;;5.98;100.00;98278.59;5365451;26;20353;-77
2024/04/10 05:26:01;;;;;;;7.90;2.10;;;;;;;6.02;100.00;98282.44;5375739;26;20337;-82
2024/04/10 05:28:28;;;;;;;13.45;2.80;;;;;;;6.03;100.00;98273.53;5352473;26;20384;-82
2024/04/10 05:31:00;;;;;;;5.85;2.22;;;;;;;6.02;100.00;98283.22;5351661;26;20818;-82
2024/04/10 05:33:27;;;;;;;5.97;2.40;;;;;;;6.04;100.00;98288.31;5352299;26;20341;-82
2024/04/10 05:35:59;;;;;;;8.07;2.47;;;;;;;6.06;100.00;98287.09;5352533;26;20348;-82
2024/04/10 05:38:25;;;;;;;6.67;2.73;;;;;;;6.19;100.00;98286.31;5353340;26;20348;-85
2024/04/10 05:40:53;;;;;;;5.25;2.10;;;;;;;6.12;100.00;98282.84;5352780;26;20359;-82
2024/04/10 05:43:20;;;;;;;6.32;2.17;;;;;;;6.18;100.00;98282.84;5352157;26;20337;-80
2024/04/10 05:45:46;;;;;;;6.10;1.83;;;;;;;6.22;100.00;98291.97;5369555;26;20349;-83
2024/04/10 05:48:12;;;;;;;7.88;2.30;;;;;;;6.25;100.00;98298.63;5383704;26;20441;-84
2024/04/10 05:50:38;;;;;;;5.83;1.90;;;;;;;6.29;100.00;98304.31;5376242;26;20350;-82
2024/04/10 05:53:04;;;;;;;5.28;1.92;;;;;;;6.33;100.00;98308.97;5390212;26;20361;-82
2024/04/10 05:55:30;;;;;;;9.97;2.23;;;;;;;6.48;100.00;98317.47;5389149;26;20371;-83
2024/04/10 05:57:59;;;;;;;9.10;2.30;;;;;;;6.49;100.00;98313.81;5362900;26;20385;-84
2024/04/10 06:00:25;;;;;;;7.93;2.15;;;;;;;6.48;100.00;98322.72;5359013;26;20337;-83
2024/04/10 06:02:51;;;;;;;9.88;2.13;;;;;;;6.52;100.00;98328.41;5357826;26;20340;-82
2024/04/10 06:05:17;;;;;;;8.73;2.10;;;;;;;6.51;100.00;98338.13;5359931;26;20341;-82
2024/04/10 06:07:45;;;;;;;7.63;2.08;;;;;;;6.56;100.00;98338.31;5359670;26;20341;-82
2024/04/10 06:10:12;;;;;;;11.85;2.20;;;;;;;6.54;100.00;98342.97;5363275;26;20325;-82
2024/04/10 06:12:38;;;;;;;8.50;2.20;;;;;;;6.58;100.00;98353.91;5370218;26;20338;-88
2024/04/10 06:15:07;;;;;;;6.32;2.20;;;;;;;6.61;100.00;98353.50;5370282;26;20436;-84
2024/04/10 06:17:33;;;;;;;8.98;2.20;;;;;;;6.67;100.00;98351.88;5382419;26;20397;-83
2024/04/10 06:19:59;;;;;;;8.82;2.20;;;;;;;6.63;100.00;98359.34;5391305;26;20398;-82
2024/04/10 06:22:25;;;;;;;10.37;2.30;;;;;;;6.68;100.00;98358.78;5383748;26;20407;-84
2024/04/10 06:24:51;;;;;;;7.80;2.50;;;;;;;6.78;100.00;98353.88;5378472;26;20345;-82
2024/04/10 06:27:18;;;;;;;5.88;2.08;;;;;;;6.68;100.00;98362.22;5371610;26;20385;-84
2024/04/10 06:29:45;;;;;;;9.43;2.53;;;;;;;6.68;100.00;98356.13;5370160;26;20345;-81
2024/04/10 06:32:14;;;;;;;5.47;2.10;;;;;;;6.72;100.00;98357.34;5390761;26;20334;-84
2024/04/10 06:34:41;;;;;;;9.48;3.42;;;;;;;6.74;100.00;98356.13;5392051;26;20323;-84
2024/04/10 06:37:07;;;;;;;10.35;2.50;;;;;;;6.75;100.00;98354.31;5392716;26;20338;-84
2024/04/10 06:39:34;;;;;;;7.45;1.92;;;;;;;6.74;100.00;98363.22;5395370;26;20334;-83
2024/04/10 06:42:00;;;;;;;8.53;2.67;;;;;;;6.79;100.00;98366.03;5359574;26;20358;-83
2024/04/10 06:44:27;;;;;;;7.88;2.17;;;;;;;6.86;100.00;98370.28;5354532;26;20381;-83
2024/04/10 06:46:53;;;;;;;6.90;2.03;;;;;;;6.92;100.00;98369.47;5354481;26;20897;-81
2024/04/10 06:49:22;;;;;;;5.18;2.00;;;;;;;7.01;100.00;98370.06;5354309;26;20376;-82
2024/04/10 06:51:49;;;;;;;5.93;1.90;;;;;;;7.08;100.00;98375.34;5354860;26;20901;-82
2024/04/10 06:54:15;;;;;;;7.77;2.47;;;;;;;7.15;100.00;98387.47;5362711;26;20733;-81
2024/04/10 06:56:41;;;;;;;6.25;2.30;;;;;;;7.23;100.00;98395.16;5353275;26;20333;-81
2024/04/10 06:59:07;;;;;;;11.02;2.78;;;;;;;7.35;100.00;98393.53;5353225;26;20337;-80
2024/04/10 07:01:33;;;;;;;2.25;1.63;;;;;;;7.41;100.00;98393.72;5352145;26;20346;-82
2024/04/10 07:03:59;;;;;;;3.08;1.45;;;;;;;7.48;100.00;98397.97;5355850;26;20357;-80
2024/04/10 07:06:28;;;;;;;4.00;1.90;;;;;;;7.57;100.00;98407.28;5353182;26;20336;-79
2024/04/10 07:08:55;;;;;;;12.77;2.45;;;;;;;7.64;100.00;98402.78;5351756;26;20337;-80
2024/04/10 07:11:21;;;;;;;9.75;2.80;;;;;;;7.67;100.00;98407.63;5352000;26;20360;-80
2024/04/10 07:13:48;;;;;;;7.63;2.17;;;;;;;7.73;100.00;98403.38;5350701;26;20372;-82
2024/04/10 07:16:15;;;;;;;7.43;1.88;;;;;;;7.75;100.00;98409.22;5328281;26;20339;-80
2024/04/10 07:18:43;;;;;;;4.53;2.13;;;;;;;7.80;100.00;98406.00;5352886;26;20406;-78
2024/04/10 07:21:10;;;;;;;4.28;1.75;;;;;;;7.86;100.00;98410.44;5357991;26;20341;-81
2024/04/10 07:23:40;;;;;;;4.28;1.52;;;;;;;7.90;100.00;98415.06;5351940;26;20666;-81
2024/04/10 07:26:09;;;;;;;6.38;1.70;;;;;;;7.96;100.00;98418.72;5351116;26;20345;-82
2024/04/10 07:28:35;;;;;;;11.20;2.25;;;;;;;7.99;100.00;98426.19;5356615;26;20420;-81
2024/04/10 07:31:02;;;;;;;8.23;2.28;;;;;;;8.02;100.00;98421.31;5353945;26;20421;-82
2024/04/10 07:33:28;;;;;;;7.03;2.60;;;;;;;8.03;100.00;98424.78;5354654;26;20368;-80
2024/04/10 07:35:54;;;;;;;9.38;2.25;;;;;;;8.06;100.00;98425.16;5355551;26;20344;-79
2024/04/10 07:38:20;;;;;;;5.50;1.70;;;;;;;8.10;100.00;98436.09;5356276;26;20909;-79
2024/04/10 07:40:56;;;;;;;4.93;1.90;;;;;;;8.14;100.00;98440.72;5357126;26;20341;-79
2024/04/10 07:43:22;;;;;;;12.10;3.53;;;;;;;8.16;100.00;98433.44;5357030;26;20341;-80
2024/04/10 07:47:04;;;;;;;15.48;2.58;;;;;;;8.09;100.00;98431.84;5538541;25;20405;-81
2024/04/10 07:49:30;;;;;;;12.85;2.60;;;;;;;8.10;100.00;98441.38;5512939;25;20700;-79
2024/04/10 07:51:57;;;;;;;9.38;1.98;;;;;;;8.18;100.00;98448.25;5506194;26;20337;-81
2024/04/10 07:54:23;;;;;;;7.95;2.30;;;;;;;8.26;100.00;98450.63;5515915;25;20365;-80
2024/04/10 07:56:49;;;;;;;15.23;3.00;;;;;;;8.41;100.00;98451.22;5525736;25;20329;-81
2024/04/10 07:59:15;;;;;;;10.52;2.17;;;;;;;8.41;100.00;98457.28;5516942;25;20368;-78
2024/04/10 08:01:42;;;;;;;13.77;2.50;;;;;;;8.44;100.00;98448.13;5519678;25;20326;-79
2024/04/10 08:04:11;;;;;;;13.05;2.95;;;;;;;8.49;100.00;98456.25;5515273;25;20333;-80
2024/04/10 08:06:37;;;;;;;11.93;2.65;;;;;;;8.53;100.00;98449.50;5515224;25;20346;-82
2024/04/10 08:09:04;;;;;;;9.97;2.47;;;;;;;8.57;100.00;98452.53;5520161;25;20318;-82
2024/04/10 08:11:30;;;;;;;10.90;3.08;;;;;;;8.62;100.00;98465.91;5512053;25;20318;-82
2024/04/10 08:13:56;;;;;;;6.05;2.00;;;;;;;8.78;100.00;98471.50;5515148;25;20734;-82
2024/04/10 08:16:22;;;;;;;6.95;1.90;;;;;;;8.95;100.00;98468.34;5514042;25;20326;-82
2024/04/10 08:18:48;;;;;;;4.30;1.80;;;;;;;9.11;100.00;98478.38;5511037;25;20381;-84
2024/04/10 08:21:18;;;;;;;12.45;2.63;;;;;;;9.41;100.00;98471.41;5510633;25;20326;-84
2024/04/10 08:23:46;;;;;;;10.90;2.13;;;;;;;9.44;100.00;98473.63;5512467;25;20322;-84
2024/04/10 08:26:13;;;;;;;8.18;2.13;;;;;;;9.48;100.00;98468.72;5511368;26;20984;-83
2024/04/10 08:28:50;;;;;;;6.68;1.90;;;;;;;9.59;100.00;98475.94;5512175;25;20325;-83
2024/04/10 08:31:17;;;;;;;12.00;2.30;;;;;;;9.75;100.00;98480.66;5512811;26;20761;-83
2024/04/10 08:33:44;;;;;;;5.43;1.80;;;;;;;9.90;100.00;98475.03;5519438;25;20371;-82
2024/04/10 08:36:12;;;;;;;6.88;1.80;;;;;;;10.07;100.00;98471.56;5516532;25;21016;-83
2024/04/10 08:38:41;;;;;;;6.23;1.97;;;;;;;10.27;100.00;98475.84;5514551;25;20404;-83
2024/04/10 08:41:12;;;;;;;10.10;2.10;;;;;;;10.37;100.00;98473.50;5510935;25;20322;-84
2024/04/10 08:43:42;;;;;;;6.00;2.17;;;;;;;10.56;100.00;98482.22;5512270;25;20373;-83
2024/04/10 08:46:09;;;;;;;10.85;2.08;;;;;;;10.68;100.00;98480.41;5513665;25;20362;-83
2024/04/10 08:48:37;;;;;;;8.65;2.03;;;;;;;10.82;100.00;98489.81;5511577;25;20420;-82
2024/04/10 08:51:08;;;;;;;6.00;1.50;;;;;;;10.79;100.00;98487.59;5515179;25;20314;-83
2024/04/10 08:53:35;;;;;;;6.00;1.73;;;;;;;10.84;100.00;98480.59;5512660;25;20326;-81
2024/04/10 08:56:04;;;;;;;11.95;2.50;;;;;;;10.85;100.00;98492.00;5512350;25;20322;-83
2024/04/10 08:58:30;;;;;;;7.35;1.60;;;;;;;11.10;100.00;98484.69;5495645;26;20418;-83
2024/04/10 09:00:56;;;;;;;4.55;1.70;;;;;;;11.45;100.00;98503.31;5496135;26;20399;-83
2024/04/10 09:03:23;;;;;;;8.90;2.00;;;;;;;11.80;100.00;98494.59;5496292;26;20326;-83
2024/04/10 09:05:49;;;;;;;2.78;1.25;;;;;;;12.16;100.00;98499.63;5494703;26;20366;-83
2024/04/10 09:08:15;;;;;;;2.55;1.08;;;;;;;12.58;100.00;98497.53;5495655;26;20439;-84
2024/04/10 09:10:41;;;;;;;9.77;1.90;;;;;;;13.08;100.00;98497.66;5495251;26;20330;-83
2024/04/10 09:13:13;;;;;;;6.60;2.17;;;;;;;13.43;100.00;98494.03;5493953;26;20919;-83
2024/04/10 09:15:39;;;;;;;9.85;1.60;;;;;;;13.52;100.00;98505.88;5495175;26;20357;-83
2024/04/10 09:18:06;;;;;;;8.93;2.30;;;;;;;13.71;100.00;98509.09;5495981;26;20714;-84
2024/04/10 09:20:32;;;;;;;3.38;1.20;;;;;;;13.97;100.00;98503.09;5497752;26;20319;-82
2024/04/10 09:23:04;;;;;;;7.07;1.50;;;;;;;13.99;100.00;98498.31;5501098;26;20402;-83
2024/04/10 09:25:31;;;;;;;3.80;1.40;;;;;;;14.42;100.00;98513.56;5498068;26;20349;-83
2024/04/10 09:27:59;;;;;;;5.25;1.20;;;;;;;14.94;100.00;98513.06;5497350;26;20389;-84
2024/04/10 09:30:28;;;;;;;11.75;1.83;;;;;;;15.10;100.00;98509.50;5497492;26;20326;-81
2024/04/10 09:32:54;;;;;;;4.60;1.00;;;;;;;15.13;100.00;98516.19;5497818;26;20323;-82
2024/04/10 09:35:21;;;;;;;5.55;0.98;;;;;;;15.03;100.00;98522.25;5496861;26;20425;-81
2024/04/10 09:37:51;;;;;;;5.07;1.27;;;;;;;14.80;100.00;98528.66;5496227;26;20359;-80
2024/04/10 09:40:23;;;;;;;9.37;2.03;;;;;;;14.30;100.00;98531.47;5496018;26;20406;-81
2024/04/10 09:42:57;;;;;;;6.90;1.60;;;;;;;13.70;100.00;98534.88;5496436;26;20333;-83
2024/04/10 09:45:30;;;;;;;8.45;1.70;;;;;;;13.53;100.00;98523.47;5499845;26;20323;-79
2024/04/10 09:48:00;;;;;;;6.88;1.40;;;;;;;14.01;100.00;98528.16;5499394;26;20326;-80
2024/04/10 09:50:32;;;;;;;4.97;1.30;;;;;;;14.63;100.00;98533.25;5495788;26;20326;-83
2024/04/10 09:52:59;;;;;;;10.30;1.85;;;;;;;15.41;100.00;98547.94;5496617;26;20780;-82
2024/04/10 09:55:26;;;;;;;9.90;1.90;;;;;;;15.99;100.00;98532.91;5529421;26;20341;-81
2024/04/10 09:57:53;;;;;;;6.85;2.08;;;;;;;15.92;100.00;98537.69;5496395;25;20806;-81
2024/04/10 10:00:19;;;;;;;3.92;1.40;;;;;;;15.83;100.00;98537.34;5511540;26;20327;-80
2024/04/10 10:02:48;;;;;;;4.78;1.35;;;;;;;15.89;100.00;98533.66;5513377;25;20330;-80
2024/04/10 10:05:21;;;;;;;8.75;1.83;;;;;;;16.18;100.00;98529.56;5495338;26;20326;-81
2024/04/10 10:07:49;;;;;;;8.33;2.70;;;;;;;16.64;100.00;98533.28;5493668;26;20393;-80
2024/04/10 10:10:16;;;;;;;13.37;5.37;;;;;;;17.15;100.00;98522.69;5493968;26;20354;-82
2024/04/10 10:12:44;;;;;;;19.58;9.13;;;;;;;17.47;100.00;98527.00;5498715;26;20379;-80
2024/04/10 10:15:11;;;;;;;15.37;6.37;;;;;;;17.45;100.00;98529.16;5503338;26;20342;-81
2024/04/10 10:17:38;;;;;;;7.43;3.25;;;;;;;17.09;100.00;98533.66;5503643;26;20368;-80
2024/04/10 10:20:19;;;;;;;5.10;2.30;;;;;;;16.52;100.00;98538.00;5501426;25;20322;-80
2024/04/10 10:22:56;;;;;;;4.93;1.95;;;;;;;15.99;100.00;98544.41;5496244;26;20326;-82
2024/04/10 10:25:23;;;;;;;3.17;1.48;;;;;;;15.72;100.00;98544.47;5501124;26;20455;-83
2024/04/10 10:27:50;;;;;;;9.52;1.90;;;;;;;15.96;100.00;98536.91;5508508;26;20426;-82
2024/04/10 10:30:17;;;;;;;4.55;1.60;;;;;;;15.86;100.00;98544.84;5503910;26;20334;-82
2024/04/10 10:32:43;;;;;;;2.55;1.20;;;;;;;15.68;100.00;98538.03;5525125;26;20404;-81
2024/04/10 10:35:12;;;;;;;6.83;1.63;;;;;;;15.38;100.00;98546.56;5526353;26;20352;-82
2024/04/10 10:37:38;;;;;;;7.40;1.73;;;;;;;15.20;100.00;98541.59;5526446;25;20315;-81
2024/04/10 10:40:06;;;;;;;4.85;1.58;;;;;;;14.82;100.00;98537.19;5501092;26;20334;-78
2024/04/10 10:42:32;;;;;;;4.80;1.35;;;;;;;14.47;100.00;98537.59;5515227;26;20780;-80
2024/04/10 10:45:05;;;;;;;7.90;1.75;;;;;;;14.61;100.00;98541.50;5500236;26;20445;-81
2024/04/10 10:47:38;;;;;;;4.47;1.27;;;;;;;14.85;100.00;98539.38;5493650;26;20370;-79
2024/04/10 10:50:05;;;;;;;10.70;2.30;;;;;;;15.13;100.00;98540.19;5455866;26;20341;-79
2024/04/10 10:52:34;;;;;;;7.65;1.90;;;;;;;15.39;100.00;98542.84;5459429;26;20377;-79
2024/04/10 10:55:07;;;;;;;7.25;1.80;;;;;;;15.97;100.00;98535.84;5491623;26;20386;-79
2024/04/10 10:57:34;;;;;;;3.78;1.25;;;;;;;16.60;100.00;98521.50;5495011;26;20668;-82
2024/04/10 11:00:12;;;;;;;7.25;1.40;;;;;;;17.17;100.00;98523.25;5495557;25;20334;-81
2024/04/10 11:02:39;;;;;;;2.85;1.02;;;;;;;17.58;100.00;98513.38;5494244;26;20852;-80
2024/04/10 11:05:07;;;;;;;2.47;1.00;;;;;;;18.13;100.00;98498.28;5494033;26;20374;-81
2024/04/10 11:07:36;;;;;;;3.78;1.25;;;;;;;18.70;100.00;98507.78;5475888;26;20732;-79
2024/04/10 11:10:06;;;;;;;5.43;1.17;;;;;;;19.37;100.00;98506.28;5495450;26;20318;-80
2024/04/10 11:12:32;;;;;;;5.00;1.10;;;;;;;19.50;100.00;98501.09;5488056;26;20426;-79
2024/04/10 11:15:06;;;;;;;4.80;1.25;;;;;;;19.98;100.00;98504.69;5493681;26;20346;-80
2024/04/10 11:17:32;;;;;;;5.40;1.30;;;;;;;20.62;100.00;98494.56;5494783;26;20382;-79
2024/04/10 11:19:58;;;;;;;3.15;0.90;;;;;;;21.22;100.00;98491.03;5501474;26;20932;-80
2024/04/10 11:22:25;;;;;;;5.87;1.03;;;;;;;21.84;100.00;98493.50;5499619;26;20334;-80
2024/04/10 11:24:53;;;;;;;4.25;0.80;;;;;;;22.43;100.00;98494.56;5494130;26;20675;-81
2024/04/10 11:27:20;;;;;;;5.63;1.23;;;;;;;22.50;100.00;98495.75;5493341;26;20423;-79
2024/04/10 11:29:47;;;;;;;5.43;1.13;;;;;;;22.90;100.00;98485.22;5498995;26;20417;-79
2024/04/10 11:32:14;;;;;;;4.13;0.80;;;;;;;23.46;100.00;98482.81;5461669;26;20418;-80
2024/04/10 11:34:40;;;;;;;3.53;0.90;;;;;;;24.04;100.00;98489.22;5498615;26;20334;-80